Time;durP1;ratioP1;P1;durP2;ratioP2;P2;SDS_P1;SDS_P2;PMS_P1;PMS_P2;Temp;Humidity;BMP_temperature;BMP_pressure;BME280_temperature;BME280_humidity;BME280_pressure;Samples;Min_cycle;Max_cycle;Signal;HPM_P1;HPM_P2
2021/12/20 00:00:32;;;;;;;5.57;3.67;;;4.80;99.90;;;2.98;86.38;99703.06;10389768;28;96592;-78
2021/12/20 00:05:36;;;;;;;6.30;4.20;;;4.80;99.90;;;2.97;86.61;99683.03;10388105;28;96608;-78
2021/12/20 00:10:39;;;;;;;8.33;4.27;;;4.80;99.90;;;3.00;86.75;99685.41;10366259;28;96620;-78
2021/12/20 00:15:42;;;;;;;6.03;4.03;;;4.80;99.90;;;2.96;87.66;99676.13;10379211;28;96538;-79
2021/12/20 00:20:45;;;;;;;6.97;3.93;;;4.80;99.90;;;2.85;88.24;99703.28;10372321;28;96436;-78
2021/12/20 00:25:50;;;;;;;5.83;3.37;;;4.70;99.90;;;2.76;88.95;99713.72;10379863;28;96555;-77
2021/12/20 00:30:53;;;;;;;7.80;4.60;;;4.60;99.90;;;2.74;89.40;99729.59;10380131;28;96686;-77
2021/12/20 00:35:56;;;;;;;7.13;4.23;;;4.50;99.90;;;2.77;89.14;99745.09;10377418;28;98268;-79
2021/12/20 00:41:00;;;;;;;7.00;4.00;;;4.60;99.90;;;2.80;89.22;99773.69;10409976;28;96533;-79
2021/12/20 00:46:03;;;;;;;7.30;4.87;;;4.60;99.90;;;2.80;89.02;99797.31;10356366;28;96609;-79
2021/12/20 00:51:05;;;;;;;8.57;5.23;;;4.60;99.90;;;2.79;89.44;99787.78;10342961;28;98650;-79
2021/12/20 00:56:08;;;;;;;6.80;4.47;;;4.60;99.90;;;2.76;89.78;99779.31;10406328;28;96614;-79
2021/12/20 01:01:12;;;;;;;6.17;3.07;;;4.60;99.90;;;2.70;89.60;99764.97;10394191;27;97302;-79
2021/12/20 01:06:14;;;;;;;4.40;2.50;;;4.50;99.90;;;2.64;89.22;99768.09;10409547;28;96615;-79
2021/12/20 01:11:23;;;;;;;4.30;2.20;;;4.50;99.90;;;2.59;88.64;99768.47;10391898;28;96590;-79
2021/12/20 01:16:32;;;;;;;4.93;2.33;;;4.50;99.90;;;2.56;87.67;99783.63;10381757;28;96494;-79
2021/12/20 01:21:34;;;;;;;3.00;1.93;;;4.40;99.90;;;2.53;87.01;99778.63;10398002;28;96502;-79
2021/12/20 01:26:37;;;;;;;1.67;1.00;;;4.40;99.90;;;2.55;85.46;99789.81;10385302;28;96594;-79
2021/12/20 01:31:40;;;;;;;1.60;0.80;;;4.40;99.90;;;2.60;83.41;99792.91;10380691;28;96862;-79
2021/12/20 01:36:43;;;;;;;1.90;0.80;;;4.50;99.90;;;2.66;82.01;99798.47;10361636;28;96539;-79
2021/12/20 01:41:47;;;;;;;1.77;0.80;;;4.50;99.90;;;2.69;81.69;99800.00;10361800;28;96444;-79
2021/12/20 01:46:50;;;;;;;2.23;1.10;;;4.60;99.90;;;2.69;80.99;99802.63;10396329;28;96528;-79
2021/12/20 01:52:09;;;;;;;2.97;1.33;;;4.60;99.90;;;2.66;80.79;99821.25;10385614;28;96843;-79
2021/12/20 01:57:12;;;;;;;2.10;1.20;;;4.60;99.90;;;2.55;80.82;99844.91;10365636;28;96560;-79
2021/12/20 02:02:15;;;;;;;2.57;1.30;;;4.50;99.90;;;2.40;81.54;99853.06;10402938;28;97216;-79
2021/12/20 02:07:36;;;;;;;2.97;1.30;;;4.40;99.90;;;2.26;82.06;99855.13;10381549;28;96845;-79
2021/12/20 02:12:39;;;;;;;2.63;1.17;;;4.30;99.90;;;2.14;82.54;99856.94;10383204;28;96795;-79
2021/12/20 02:17:42;;;;;;;2.90;1.80;;;4.20;99.90;;;2.09;83.38;99869.56;10348870;28;98386;-79
2021/12/20 02:22:46;;;;;;;3.40;1.57;;;4.20;99.90;;;2.07;84.15;99866.25;10395119;28;96502;-79
2021/12/20 02:27:49;;;;;;;4.50;1.93;;;4.10;99.90;;;2.06;84.32;99859.34;10367691;28;96636;-79
2021/12/20 02:38:18;;;;;;;3.80;1.70;;;4.10;99.90;;;1.88;85.44;99857.22;10352262;28;96635;-79
2021/12/20 02:43:21;;;;;;;4.13;2.30;;;4.00;99.90;;;1.77;85.57;99880.81;10372471;28;96519;-79
2021/12/20 02:48:24;;;;;;;4.57;2.10;;;3.90;99.90;;;1.77;85.55;99872.94;10363441;28;96575;-79
2021/12/20 02:53:27;;;;;;;4.30;1.80;;;3.90;99.90;;;1.64;85.88;99880.09;10357082;28;97917;-79
2021/12/20 02:58:29;;;;;;;3.67;1.67;;;3.80;99.90;;;1.45;85.86;99885.09;10359105;28;96717;-79
2021/12/20 03:03:32;;;;;;;2.23;1.33;;;3.60;99.90;;;1.29;85.41;99908.97;10390551;28;96721;-79
2021/12/20 03:08:38;;;;;;;2.40;1.40;;;3.50;99.90;;;1.09;85.39;99910.47;10395673;28;96490;-79
2021/12/20 03:13:44;;;;;;;2.20;1.33;;;3.30;99.90;;;0.96;85.80;99910.56;10382896;28;96563;-79
2021/12/20 03:18:47;;;;;;;3.33;1.30;;;3.10;99.90;;;0.80;86.21;99903.00;10356742;28;97940;-79
2021/12/20 03:23:50;;;;;;;3.43;1.33;;;3.00;99.90;;;0.65;86.39;99908.50;10374005;27;96557;-78
2021/12/20 03:28:52;;;;;;;3.33;1.57;;;2.80;99.90;;;0.52;85.96;99916.41;10347070;28;96771;-77
2021/12/20 03:33:56;;;;;;;4.93;1.70;;;2.70;99.90;;;0.38;85.86;99925.25;10379759;28;96711;-78
2021/12/20 03:38:59;;;;;;;2.10;1.30;;;2.60;99.90;;;0.26;85.92;99942.63;10361532;28;98163;-78
2021/12/20 03:44:04;;;;;;;2.17;1.27;;;2.50;99.90;;;0.17;85.21;99951.09;10349287;28;96553;-77
2021/12/20 03:49:08;;;;;;;3.03;1.50;;;2.40;99.90;;;0.09;84.11;99966.50;10358841;28;98410;-78
2021/12/20 03:54:11;;;;;;;2.23;1.10;;;2.30;99.90;;;-0.05;84.10;99966.63;10386841;28;96524;-78
2021/12/20 03:59:14;;;;;;;3.73;1.30;;;2.20;99.90;;;-0.21;83.78;99973.84;10394462;28;96456;-78
2021/12/20 04:04:17;;;;;;;2.63;1.00;;;2.10;99.90;;;-0.37;83.47;99972.25;10364038;28;96535;-78
2021/12/20 04:09:20;;;;;;;8.07;2.37;;;1.90;99.90;;;-0.51;83.47;99972.38;10379464;28;96962;-79
2021/12/20 04:14:23;;;;;;;9.47;5.63;;;1.80;99.90;;;-0.67;83.75;99961.28;10396673;28;96617;-79
2021/12/20 04:19:26;;;;;;;10.13;5.90;;;1.60;99.90;;;-0.83;83.54;99985.78;10379107;28;98320;-79
2021/12/20 04:24:30;;;;;;;21.87;11.30;;;1.50;99.90;;;-0.92;84.23;99981.16;10357414;28;96621;-79
2021/12/20 04:29:33;;;;;;;5.40;2.70;;;1.40;99.90;;;-0.89;85.44;99988.78;10392292;28;96511;-79
2021/12/20 04:34:35;;;;;;;3.03;1.80;;;1.40;99.90;;;-0.85;85.90;99990.25;10361068;28;98388;-79
2021/12/20 04:39:39;;;;;;;4.00;1.87;;;1.40;99.90;;;-0.83;86.56;99988.38;10392374;28;96849;-79
2021/12/20 04:44:42;;;;;;;2.63;1.30;;;1.40;99.90;;;-0.84;86.41;99999.78;10339762;28;96611;-79
2021/12/20 04:49:46;;;;;;;4.37;1.40;;;1.40;99.90;;;-0.86;86.23;100004.22;10389283;28;97921;-78
2021/12/20 04:54:49;;;;;;;2.53;1.07;;;1.30;99.90;;;-0.90;85.87;100012.34;10386567;28;96575;-78
2021/12/20 04:59:52;;;;;;;4.40;3.07;;;1.30;99.90;;;-1.03;85.53;100012.31;10362905;28;96628;-78
2021/12/20 05:04:55;;;;;;;245.20;101.40;;;1.20;99.90;;;-1.15;85.69;100023.53;10357101;28;96664;-78
2021/12/20 05:10:01;;;;;;;9.10;4.47;;;1.10;99.90;;;-1.20;86.40;100028.19;10407179;28;96569;-78
2021/12/20 05:15:05;;;;;;;5.80;2.73;;;1.10;99.90;;;-1.20;86.82;100036.00;10367506;28;96975;-78
2021/12/20 05:20:09;;;;;;;4.33;2.60;;;1.00;99.90;;;-1.22;87.31;100041.34;10339584;28;96450;-77
2021/12/20 05:25:12;;;;;;;6.00;2.27;;;1.00;99.90;;;-1.15;87.64;100040.00;10376932;28;97782;-78
2021/12/20 05:30:16;;;;;;;8.10;3.53;;;1.00;99.90;;;-1.00;87.80;100047.81;10358890;28;96927;-78
2021/12/20 05:35:20;;;;;;;5.83;2.30;;;1.10;99.90;;;-0.92;87.29;100048.97;10363176;28;97258;-78
2021/12/20 05:40:23;;;;;;;4.63;2.00;;;1.20;99.90;;;-0.88;86.85;100052.22;10378898;28;96667;-78
2021/12/20 05:45:26;;;;;;;7.93;3.97;;;1.20;99.90;;;-0.90;86.71;100060.16;10379319;28;98070;-77
2021/12/20 05:50:31;;;;;;;7.27;2.70;;;1.20;99.90;;;-0.94;86.47;100082.16;10371868;28;96980;-78
2021/12/20 05:55:34;;;;;;;5.63;2.27;;;1.20;99.90;;;-1.01;85.83;100096.53;10373999;28;97434;-78
2021/12/20 06:00:37;;;;;;;4.07;2.30;;;1.10;99.90;;;-1.07;86.12;100096.91;10396041;28;96597;-77
2021/12/20 06:05:42;;;;;;;4.27;2.17;;;1.10;99.90;;;-1.07;85.68;100099.53;10386906;28;96999;-78
2021/12/20 06:10:45;;;;;;;8.80;4.10;;;1.10;99.90;;;-1.08;85.29;100113.47;10372432;28;96531;-78
2021/12/20 06:15:48;;;;;;;7.57;3.37;;;1.10;99.90;;;-1.08;85.11;100103.91;10384923;28;97849;-78
2021/12/20 06:20:51;;;;;;;7.97;3.20;;;1.10;99.90;;;-1.03;83.92;100100.16;10359684;28;96660;-78
2021/12/20 06:25:54;;;;;;;5.73;2.57;;;1.10;99.90;;;-0.93;82.13;100117.75;10398564;28;96648;-78
2021/12/20 06:30:57;;;;;;;4.73;2.20;;;1.20;99.90;;;-0.92;81.70;100124.63;10399431;28;96653;-78
2021/12/20 06:36:00;;;;;;;5.83;1.97;;;1.20;99.90;;;-0.95;81.40;100118.78;10384288;28;96575;-78
2021/12/20 06:41:03;;;;;;;3.13;1.97;;;1.20;99.90;;;-1.00;80.70;100116.44;10370933;28;97882;-79
2021/12/20 06:46:06;;;;;;;2.97;1.57;;;1.10;99.90;;;-0.91;79.93;100134.13;10355780;28;96915;-78
2021/12/20 06:51:08;;;;;;;3.73;1.30;;;1.20;99.90;;;-0.72;79.22;100132.94;10372233;28;96597;-78
2021/12/20 06:56:13;;;;;;;3.37;1.50;;;1.30;99.90;;;-0.48;78.29;100143.59;10392376;28;97566;-79
2021/12/20 07:01:15;;;;;;;4.57;1.00;;;1.40;99.90;;;-0.23;77.88;100121.97;10391833;28;96494;-79
2021/12/20 07:06:18;;;;;;;2.43;1.50;;;1.60;99.90;;;-0.15;75.37;100127.50;10416139;28;96517;-80
2021/12/20 07:11:22;;;;;;;4.60;1.73;;;1.70;99.90;;;-0.10;74.43;100122.84;10418089;28;96441;-80
2021/12/20 07:16:25;;;;;;;3.47;1.20;;;1.80;99.90;;;-0.03;73.94;100129.31;10380191;28;96797;-80
2021/12/20 07:21:27;;;;;;;2.40;1.50;;;1.90;99.90;;;0.04;73.34;100130.56;10378639;28;96673;-80
2021/12/20 07:26:31;;;;;;;4.10;1.47;;;2.00;99.90;;;0.10;72.27;100117.09;10381296;27;98242;-84
2021/12/20 07:31:34;;;;;;;5.83;2.20;;;2.10;99.90;;;0.42;72.48;100135.84;10372946;28;96583;-85
2021/12/20 07:36:38;;;;;;;4.10;1.87;;;2.20;99.90;;;1.05;71.47;100136.69;10373978;28;96486;-77
2021/12/20 07:41:41;;;;;;;3.77;1.57;;;2.50;99.90;;;1.57;70.07;100139.03;10384865;28;96864;-77
2021/12/20 07:46:45;;;;;;;8.53;4.47;;;2.80;99.90;;;2.07;69.71;100158.03;10368551;28;97739;-82
2021/12/20 07:51:51;;;;;;;5.70;2.17;;;3.10;99.90;;;2.52;68.08;100146.78;10359661;28;98691;-83
2021/12/20 07:56:56;;;;;;;5.50;1.53;;;3.40;99.90;;;2.86;65.53;100143.22;10387406;28;96795;-79
2021/12/20 08:02:00;;;;;;;5.33;1.97;;;3.70;99.90;;;3.18;64.11;100135.47;10390581;28;96680;-78
2021/12/20 08:07:03;;;;;;;2.70;1.40;;;4.00;99.90;;;3.38;61.93;100120.72;10372270;28;98258;-79
2021/12/20 08:12:07;;;;;;;4.23;2.07;;;4.30;99.90;;;3.57;60.89;100135.00;10393705;28;96643;-79
2021/12/20 08:17:15;;;;;;;3.93;2.20;;;4.50;98.80;;;3.71;58.98;100125.03;10386262;28;98157;-79
2021/12/20 08:22:17;;;;;;;9.90;4.23;;;4.80;94.50;;;3.68;58.10;100119.19;10373128;28;96844;-79
2021/12/20 08:27:21;;;;;;;2.53;1.10;;;4.90;92.20;;;3.76;57.74;100119.38;10405899;28;96857;-78
2021/12/20 08:32:25;;;;;;;2.30;1.10;;;5.10;91.90;;;3.82;56.59;100110.16;10398972;28;96771;-78
2021/12/20 08:37:27;;;;;;;3.80;1.80;;;5.10;91.90;;;4.05;55.77;100118.78;10355903;28;96623;-78
2021/12/20 08:42:30;;;;;;;3.73;1.07;;;5.40;91.60;;;4.17;55.40;100115.13;10386777;28;96550;-78
2021/12/20 08:47:34;;;;;;;3.83;1.27;;;5.50;90.10;;;4.25;54.27;100115.31;10381951;28;96632;-78
2021/12/20 08:52:37;;;;;;;4.53;2.00;;;5.60;87.50;;;3.85;54.54;100115.19;10380105;28;97548;-77
2021/12/20 08:57:41;;;;;;;2.83;1.60;;;5.40;83.00;;;3.27;55.97;100118.13;10368023;28;96504;-77
2021/12/20 09:02:43;;;;;;;2.37;1.30;;;5.10;83.20;;;2.82;57.49;100099.84;10397741;28;96516;-77
2021/12/20 09:07:47;;;;;;;3.60;1.47;;;4.70;84.40;;;2.57;58.39;100115.78;10377197;28;97429;-78
2021/12/20 09:12:50;;;;;;;0.87;0.77;;;4.50;85.70;;;2.57;58.35;100124.50;10370142;28;96597;-78
2021/12/20 09:17:54;;;;;;;4.30;1.63;;;4.40;85.30;;;2.56;59.35;100101.03;10355638;28;96545;-78
2021/12/20 09:23:04;;;;;;;5.00;1.77;;;4.40;86.80;;;2.52;59.53;100120.56;10381274;28;97482;-78
2021/12/20 09:28:10;;;;;;;7.50;1.20;;;4.40;87.30;;;2.46;59.56;100098.28;10387381;28;96878;-78
2021/12/20 09:33:14;;;;;;;12.17;4.23;;;4.40;87.30;;;2.42;59.71;100086.34;10391054;28;96498;-78
2021/12/20 09:38:19;;;;;;;5.70;1.50;;;4.30;87.20;;;2.39;60.18;100087.41;10362590;28;97307;-76
2021/12/20 09:43:23;;;;;;;2.37;0.90;;;4.20;87.10;;;2.41;60.15;100106.50;10367656;28;97608;-76
2021/12/20 09:48:26;;;;;;;1.97;0.90;;;4.30;87.90;;;2.45;60.01;100085.28;10387707;28;96850;-77
2021/12/20 09:53:29;;;;;;;3.80;1.37;;;4.30;87.70;;;2.47;60.53;100094.72;10380419;28;96664;-77
2021/12/20 09:58:38;;;;;;;5.07;1.00;;;4.30;88.20;;;2.50;60.34;100104.13;10375934;28;97911;-77
2021/12/20 10:03:43;;;;;;;5.47;2.00;;;4.30;87.90;;;2.55;60.59;100120.34;10386702;28;96489;-77
2021/12/20 10:08:52;;;;;;;2.70;1.10;;;4.40;88.80;;;2.59;60.04;100108.66;10401833;28;97044;-76
2021/12/20 10:14:16;;;;;;;2.53;1.10;;;4.40;87.50;;;2.64;59.27;100098.66;10377350;28;96482;-77
2021/12/20 10:19:32;;;;;;;4.73;1.23;;;4.50;86.80;;;2.65;59.23;100108.19;10371745;28;96559;-79
2021/12/20 10:24:38;;;;;;;6.10;2.37;;;4.50;86.70;;;2.64;58.10;100132.75;10361879;28;96541;-78
2021/12/20 10:29:42;;;;;;;3.13;1.50;;;4.50;84.80;;;2.59;58.31;100150.63;10364827;28;96538;-78
2021/12/20 10:34:45;;;;;;;9.10;5.50;;;4.50;84.60;;;2.56;59.09;100175.31;10369811;28;98432;-78
2021/12/20 10:40:01;;;;;;;4.87;1.70;;;4.50;86.00;;;2.51;59.72;100195.78;10383587;28;96502;-78
2021/12/20 10:45:14;;;;;;;12.77;5.47;;;4.40;86.50;;;2.53;59.97;100193.91;10377807;28;96610;-78
2021/12/20 10:50:30;;;;;;;25.80;10.53;;;4.40;87.70;;;2.62;59.42;100192.38;10343504;28;97944;-78
2021/12/20 10:55:42;;;;;;;6.43;1.83;;;4.50;87.30;;;2.73;59.36;100204.66;10370990;28;96523;-78
2021/12/20 11:01:17;;;;;;;10.50;4.73;;;4.50;87.40;;;2.87;60.03;100196.56;10401782;28;96557;-78
2021/12/20 11:11:23;;;;;;;16.73;7.97;;;4.90;88.40;;;3.29;59.02;100189.75;10381469;28;96441;-78
2021/12/20 11:16:50;;;;;;;3.43;1.70;;;5.10;88.10;;;3.41;58.60;100190.56;10418231;28;96504;-78
2021/12/20 11:22:20;;;;;;;6.27;1.97;;;5.20;87.90;;;3.57;58.20;100177.88;10399626;28;96531;-78
2021/12/20 11:27:51;;;;;;;4.83;1.80;;;5.30;86.30;;;3.68;57.85;100177.00;10353843;28;96733;-78
2021/12/20 11:32:55;;;;;;;3.67;1.10;;;5.50;86.20;;;3.75;56.98;100170.28;10376118;28;96678;-78
2021/12/20 11:37:58;;;;;;;2.20;0.90;;;5.60;84.50;;;3.78;57.52;100170.06;10342242;28;96385;-79
2021/12/20 11:43:01;;;;;;;2.97;0.83;;;5.60;84.80;;;3.75;56.95;100163.25;10392055;28;96581;-78
2021/12/20 11:48:13;;;;;;;1.73;0.80;;;5.60;83.30;;;3.74;57.60;100168.63;10398835;28;96541;-79
2021/12/20 11:53:19;;;;;;;13.07;5.93;;;5.60;84.50;;;3.73;59.06;100174.84;10399791;28;96508;-78
2021/12/20 11:58:30;;;;;;;3.03;1.10;;;5.60;85.60;;;3.73;58.85;100157.28;10398492;28;97126;-78
2021/12/20 12:03:35;;;;;;;;;;;5.60;85.70;;;3.72;58.66;100170.56;10400096;28;96501;-78
2021/12/20 12:08:58;;;;;;;29.67;11.43;;;5.60;85.70;;;3.53;57.95;100154.59;10399243;28;96537;-78
2021/12/20 12:14:34;;;;;;;3.08;1.85;;;5.40;83.90;;;3.40;58.05;100160.00;10399904;28;96480;-78
2021/12/20 12:19:52;;;;;;;21.17;8.23;;;5.30;84.50;;;3.31;58.26;100155.50;10406420;28;96814;-78
2021/12/20 12:24:56;;;;;;;10.03;3.97;;;5.20;84.40;;;3.34;58.48;100156.06;10361925;28;96563;-78
2021/12/20 12:30:12;;;;;;;1.87;1.03;;;5.30;85.00;;;3.33;57.67;100164.91;10381589;28;96593;-78
2021/12/20 12:35:39;;;;;;;7.00;3.50;;;5.20;83.90;;;3.35;57.51;100175.28;10398030;28;96628;-78
2021/12/20 12:40:52;;;;;;;63.20;25.43;;;5.20;82.40;;;3.27;57.68;100173.28;10408699;28;96548;-78
2021/12/20 12:45:59;;;;;;;;;;;5.10;82.80;;;3.24;57.41;100181.41;10414643;28;96544;-78
2021/12/20 12:51:20;;;;;;;7.83;3.30;;;5.10;81.50;;;3.23;57.41;100192.84;10378735;28;96945;-78
2021/12/20 12:56:43;;;;;;;5.17;2.50;;;5.10;82.30;;;3.20;57.55;100193.94;10382790;28;96711;-77
2021/12/20 13:01:57;;;;;;;69.70;29.33;;;5.10;82.40;;;3.13;57.59;100192.75;10359523;28;96637;-78
2021/12/20 13:07:03;;;;;;;9.70;4.93;;;5.10;82.20;;;3.15;57.65;100213.63;10370106;28;96641;-78
2021/12/20 13:17:40;;;;;;;52.53;27.57;;;5.10;82.40;;;3.26;58.41;100213.63;10382248;28;96764;-77
2021/12/20 13:23:04;;;;;;;6.27;3.07;;;5.10;82.90;;;3.29;57.31;100208.13;10361736;28;96658;-77
2021/12/20 13:28:18;;;;;;;4.60;2.20;;;5.20;81.10;;;3.25;57.44;100211.97;10371203;28;96665;-78
2021/12/20 13:33:25;;;;;;;11.87;5.43;;;5.10;81.60;;;3.22;57.57;100228.78;10376165;28;96633;-77
2021/12/20 13:38:33;;;;;;;3.93;1.10;;;5.10;82.20;;;3.15;57.96;100234.63;10373169;28;96751;-78
2021/12/20 13:43:44;;;;;;;3.40;1.43;;;5.00;82.50;;;3.03;58.39;100233.81;10383444;28;97082;-78
2021/12/20 13:48:53;;;;;;;3.03;1.80;;;5.00;82.40;;;2.90;58.92;100223.41;10354384;28;97027;-78
2021/12/20 13:53:57;;;;;;;4.53;1.70;;;4.80;83.80;;;2.83;59.17;100232.72;10363303;28;96708;-77
2021/12/20 13:59:00;;;;;;;6.20;3.50;;;4.80;83.80;;;2.73;59.89;100242.25;10375326;28;97158;-78
2021/12/20 14:04:03;;;;;;;6.63;2.67;;;4.70;84.00;;;2.59;59.09;100238.03;10370276;28;96573;-77
2021/12/20 14:09:24;;;;;;;10.47;3.73;;;4.60;82.40;;;2.46;59.88;100228.56;10370005;27;97004;-78
2021/12/20 14:14:27;;;;;;;20.27;11.10;;;4.50;83.90;;;2.31;60.25;100235.81;10394848;28;98028;-78
2021/12/20 14:20:05;;;;;;;9.47;4.63;;;4.30;84.10;;;2.11;60.26;100240.75;10393756;28;96704;-78
2021/12/20 14:25:08;;;;;;;36.73;18.93;;;4.20;83.80;;;1.94;60.97;100243.75;10390252;28;96502;-79
2021/12/20 14:30:23;;;;;;;26.90;13.97;;;4.00;85.40;;;1.80;61.71;100234.28;10391222;28;99202;-78
2021/12/20 14:35:35;;;;;;;10.47;5.87;;;3.90;86.00;;;1.70;61.48;100237.69;10383430;28;96592;-78
2021/12/20 14:40:49;;;;;;;23.07;9.47;;;3.80;85.80;;;1.55;62.79;100235.19;10379873;28;96780;-78
2021/12/20 14:46:13;;;;;;;4.57;2.10;;;3.60;87.20;;;1.49;62.93;100248.72;10376445;28;96593;-78
2021/12/20 14:51:25;;;;;;;10.10;5.63;;;3.50;87.70;;;1.41;63.52;100255.47;10353547;28;96888;-78
2021/12/20 14:56:30;;;;;;;40.40;17.47;;;3.40;88.00;;;1.27;63.96;100261.66;10364091;28;96571;-78
2021/12/20 15:01:33;;;;;;;12.57;4.93;;;3.40;88.80;;;1.12;64.98;100260.94;10383632;28;96706;-78
2021/12/20 15:06:43;;;;;;;14.33;6.23;;;3.20;89.60;;;1.00;65.39;100261.78;10389382;28;96592;-77
2021/12/20 15:11:46;;;;;;;55.50;22.27;;;3.10;90.70;;;0.95;65.57;100254.25;10388712;28;96582;-78
2021/12/20 15:16:52;;;;;;;6.20;2.70;;;3.00;90.80;;;0.89;66.24;100254.66;10367144;28;96801;-77
2021/12/20 15:21:55;;;;;;;3.63;1.60;;;2.90;91.40;;;0.84;66.95;100248.06;10376913;27;96746;-78
2021/12/20 15:26:58;;;;;;;6.93;3.03;;;2.90;91.70;;;0.87;66.87;100255.72;10382640;28;98569;-77
2021/12/20 15:32:01;;;;;;;4.43;1.80;;;2.90;92.00;;;0.92;66.54;100248.41;10386580;28;96542;-83
2021/12/20 15:37:04;;;;;;;6.23;2.27;;;2.90;92.10;;;0.89;67.13;100251.22;10368875;28;96947;-84
2021/12/20 15:42:12;;;;;;;4.80;2.20;;;2.90;92.90;;;0.87;67.89;100268.81;10387999;28;97671;-79
2021/12/20 15:47:15;;;;;;;4.67;2.10;;;2.80;93.30;;;0.85;68.88;100279.38;10377710;28;96887;-79
2021/12/20 15:52:18;;;;;;;19.07;6.27;;;2.80;94.10;;;0.77;69.45;100271.19;10381274;28;96720;-79
2021/12/20 15:57:41;;;;;;;10.33;3.73;;;2.80;94.90;;;0.70;70.52;100277.78;10350151;28;96609;-79
2021/12/20 16:02:44;;;;;;;4.67;2.00;;;2.70;95.90;;;0.69;70.66;100263.88;10359102;28;96522;-79
2021/12/20 16:07:47;;;;;;;5.37;2.00;;;2.70;96.40;;;0.69;70.85;100258.63;10382053;28;97905;-79
2021/12/20 16:12:51;;;;;;;3.67;1.70;;;2.70;96.90;;;0.73;71.09;100267.97;10372220;28;96531;-79
2021/12/20 16:17:55;;;;;;;5.47;2.00;;;2.70;97.10;;;0.70;70.87;100270.78;10386931;28;98338;-79
2021/12/20 16:22:58;;;;;;;3.03;1.47;;;2.70;97.80;;;0.71;71.28;100271.59;10380056;28;96462;-79
2021/12/20 16:28:02;;;;;;;4.53;1.83;;;2.60;98.10;;;0.71;71.39;100274.22;10390402;28;96619;-78
2021/12/20 16:33:07;;;;;;;4.57;1.90;;;2.60;98.70;;;0.65;71.57;100288.53;10371555;28;96560;-78
2021/12/20 16:38:11;;;;;;;5.03;2.07;;;2.60;98.70;;;0.60;71.68;100295.03;10366903;28;96881;-78
2021/12/20 16:43:14;;;;;;;3.03;1.87;;;2.60;99.30;;;0.56;72.29;100309.25;10344165;28;96568;-78
2021/12/20 16:48:23;;;;;;;3.67;1.90;;;2.50;99.40;;;0.51;72.74;100306.94;10406245;28;97016;-78
2021/12/20 16:53:26;;;;;;;4.70;2.03;;;2.50;99.90;;;0.47;72.62;100305.44;10381366;28;96525;-78
2021/12/20 16:58:30;;;;;;;5.43;1.77;;;2.40;99.90;;;0.42;72.94;100315.38;10382835;28;96946;-78
2021/12/20 17:04:10;;;;;;;5.53;2.10;;;2.40;99.90;;;0.37;72.63;100310.47;10374928;28;98210;-77
2021/12/20 17:09:11;;;;;;;4.70;2.60;;;2.30;99.90;;;0.34;72.87;100325.50;10387091;28;96525;-77
2021/12/20 17:14:14;;;;;;;3.87;2.93;;;2.30;99.90;;;0.31;72.72;100330.94;10359824;28;96521;-77
2021/12/20 17:19:17;;;;;;;5.03;2.97;;;2.30;99.90;;;0.28;72.51;100336.34;10368698;28;96619;-77
2021/12/20 17:24:21;;;;;;;5.73;3.63;;;2.30;99.90;;;0.24;73.02;100341.78;10392348;28;97083;-77
2021/12/20 17:29:25;;;;;;;5.17;3.00;;;2.20;99.90;;;0.21;73.08;100336.75;10386986;28;96594;-77
2021/12/20 17:34:28;;;;;;;5.30;2.57;;;2.20;99.90;;;0.18;73.48;100331.72;10373772;28;96467;-77
2021/12/20 17:39:31;;;;;;;5.57;2.43;;;2.20;99.90;;;0.15;73.53;100336.31;10383628;28;96589;-77
2021/12/20 17:44:34;;;;;;;4.00;2.23;;;2.10;99.90;;;0.14;73.50;100340.69;10384942;27;98027;-77
2021/12/20 17:49:37;;;;;;;4.67;2.30;;;2.10;99.90;;;0.16;73.58;100340.59;10365035;28;97429;-77
2021/12/20 17:54:40;;;;;;;4.50;2.70;;;2.10;99.90;;;0.15;73.71;100355.44;10375743;28;96866;-77
2021/12/20 17:59:44;;;;;;;5.97;2.53;;;2.10;99.90;;;0.13;73.99;100346.88;10378412;28;96711;-77
2021/12/20 18:05:03;;;;;;;5.57;2.93;;;2.10;99.90;;;0.16;73.84;100357.09;10396408;28;96498;-77
2021/12/20 18:10:08;;;;;;;5.90;2.93;;;2.10;99.90;;;0.10;74.22;100357.50;10353304;28;96637;-77
2021/12/20 18:15:14;;;;;;;5.83;2.97;;;2.10;99.90;;;0.10;74.23;100383.63;10368561;28;96567;-77
2021/12/20 18:20:29;;;;;;;8.37;2.53;;;2.10;99.90;;;0.06;74.28;100391.75;10352056;28;96830;-77
2021/12/20 18:25:33;;;;;;;7.23;3.23;;;2.10;99.90;;;0.07;74.57;100396.06;10361967;28;98283;-77
2021/12/20 18:30:37;;;;;;;4.70;2.63;;;2.10;99.90;;;0.13;74.20;100400.91;10362195;28;96669;-77
2021/12/20 18:35:42;;;;;;;5.43;2.67;;;2.10;99.90;;;0.16;74.12;100396.31;10384769;28;97087;-77
2021/12/20 18:40:45;;;;;;;4.80;2.37;;;2.10;99.90;;;0.18;74.39;100399.69;10385608;28;96615;-77
2021/12/20 18:45:47;;;;;;;3.77;2.10;;;2.10;99.90;;;0.16;74.33;100398.09;10380301;28;96687;-77
2021/12/20 18:50:53;;;;;;;4.73;2.40;;;2.10;99.90;;;0.11;74.20;100400.13;10380834;28;97994;-77
2021/12/20 18:55:57;;;;;;;5.63;2.60;;;2.10;99.90;;;0.08;74.51;100402.97;10391652;27;96878;-80
2021/12/20 19:01:04;;;;;;;8.37;2.53;;;2.10;99.90;;;0.07;75.06;100416.97;10363651;28;96961;-80
2021/12/20 19:06:07;;;;;;;3.53;2.43;;;2.00;99.90;;;0.10;75.00;100412.38;10364765;28;97024;-80
2021/12/20 19:11:19;;;;;;;6.27;3.23;;;2.10;99.90;;;0.18;74.61;100423.19;10382460;28;96537;-81
2021/12/20 19:16:22;;;;;;;7.63;3.50;;;2.10;99.90;;;0.21;74.38;100427.38;10375982;28;97435;-81
2021/12/20 19:21:27;;;;;;;7.00;3.03;;;2.20;99.90;;;0.19;74.37;100431.88;10358781;28;96704;-80
2021/12/20 19:26:30;;;;;;;6.70;3.23;;;2.10;99.90;;;0.16;74.52;100432.91;10384390;28;96502;-80
2021/12/20 19:31:34;;;;;;;5.30;2.53;;;2.10;99.90;;;0.12;75.04;100451.47;10369384;28;96532;-76
2021/12/20 19:36:37;;;;;;;14.00;5.20;;;2.10;99.90;;;0.16;74.93;100452.97;10346012;28;97627;-76
2021/12/20 19:41:42;;;;;;;19.33;5.60;;;2.10;99.90;;;0.23;74.50;100459.47;10356981;28;96511;-76
2021/12/20 19:46:47;;;;;;;28.50;6.97;;;2.20;99.90;;;0.26;74.30;100460.16;10361525;28;96937;-76
2021/12/20 19:51:56;;;;;;;17.47;6.13;;;2.20;99.90;;;0.25;74.30;100458.47;10397160;28;97002;-76
2021/12/20 19:57:01;;;;;;;5.60;3.20;;;2.20;99.90;;;0.29;74.83;100459.09;10357811;28;98316;-76
2021/12/20 20:02:06;;;;;;;7.37;3.20;;;2.20;99.90;;;0.27;74.46;100466.22;10380721;28;96907;-76
2021/12/20 20:07:12;;;;;;;4.50;3.00;;;2.30;99.90;;;0.19;74.79;100455.41;10386973;27;97350;-76
2021/12/20 20:12:15;;;;;;;6.30;3.07;;;2.20;99.90;;;0.12;75.08;100456.69;10376879;28;96655;-76
2021/12/20 20:17:19;;;;;;;5.47;2.90;;;2.10;99.90;;;0.02;75.49;100472.13;10388613;28;96703;-76
2021/12/20 20:22:24;;;;;;;5.53;3.50;;;2.10;99.90;;;-0.06;75.76;100462.16;10356586;28;97473;-77
2021/12/20 20:27:28;;;;;;;7.87;3.77;;;2.00;99.90;;;-0.09;76.01;100456.25;10353048;28;96774;-76
2021/12/20 20:32:31;;;;;;;6.40;3.93;;;1.90;99.90;;;-0.15;76.18;100443.56;10366823;28;97056;-77
2021/12/20 20:37:35;;;;;;;5.53;3.13;;;1.90;99.90;;;-0.23;76.61;100443.19;10379394;28;96515;-77
2021/12/20 20:42:39;;;;;;;4.13;2.60;;;1.80;99.90;;;-0.27;76.47;100439.94;10359149;28;96622;-77
2021/12/20 20:47:43;;;;;;;4.93;2.10;;;1.80;99.90;;;-0.32;76.86;100441.97;10369246;28;97577;-77
2021/12/20 20:52:46;;;;;;;4.23;2.03;;;1.70;99.90;;;-0.34;76.42;100449.91;10355291;28;96813;-76
2021/12/20 20:57:49;;;;;;;4.57;2.63;;;1.70;99.90;;;-0.31;75.85;100459.31;10385298;28;96778;-77
2021/12/20 21:02:53;;;;;;;4.70;2.40;;;1.70;99.90;;;-0.31;75.51;100472.38;10357374;28;96782;-77
2021/12/20 21:07:57;;;;;;;5.23;2.60;;;1.70;99.90;;;-0.33;75.63;100469.84;10346700;28;96751;-77
2021/12/20 21:13:00;;;;;;;4.83;2.70;;;1.70;99.90;;;-0.34;75.36;100470.78;10388714;28;96619;-77
2021/12/20 21:18:04;;;;;;;3.27;2.17;;;1.70;99.90;;;-0.33;75.67;100471.63;10358707;28;96528;-76
2021/12/20 21:23:07;;;;;;;4.03;2.47;;;1.70;99.90;;;-0.34;75.95;100455.13;10393032;28;97283;-77
2021/12/20 21:28:10;;;;;;;7.77;3.10;;;1.70;99.90;;;-0.27;75.88;100452.97;10382143;28;96761;-76
2021/12/20 21:33:13;;;;;;;11.17;5.37;;;1.70;99.90;;;-0.16;75.83;100447.94;10362409;28;96661;-75
2021/12/20 21:38:18;;;;;;;6.20;4.00;;;1.70;99.90;;;-0.13;75.12;100466.03;10366048;28;99535;-76